sensor_id;sensor_type;location;lat;lon;timestamp;temperature;humidity
38480;DHT22;62333;51.980;5.934;2023-09-19T00:00:07;20.10;74.80
38480;DHT22;62333;51.980;5.934;2023-09-19T00:02:33;20.20;74.70
38480;DHT22;62333;51.980;5.934;2023-09-19T00:04:59;20.20;74.60
38480;DHT22;62333;51.980;5.934;2023-09-19T00:07:29;20.20;74.50
38480;DHT22;62333;51.980;5.934;2023-09-19T00:09:54;20.20;74.40
38480;DHT22;62333;51.980;5.934;2023-09-19T00:12:20;20.20;74.30
38480;DHT22;62333;51.980;5.934;2023-09-19T00:14:46;20.20;74.30
38480;DHT22;62333;51.980;5.934;2023-09-19T00:17:11;20.20;74.30
38480;DHT22;62333;51.980;5.934;2023-09-19T00:19:37;20.30;74.30
38480;DHT22;62333;51.980;5.934;2023-09-19T00:22:03;20.30;74.20
38480;DHT22;62333;51.980;5.934;2023-09-19T00:24:29;20.30;74.10
38480;DHT22;62333;51.980;5.934;2023-09-19T00:26:56;20.40;74.10
38480;DHT22;62333;51.980;5.934;2023-09-19T00:29:25;20.30;74.00
38480;DHT22;62333;51.980;5.934;2023-09-19T00:31:55;20.30;74.70
38480;DHT22;62333;51.980;5.934;2023-09-19T00:34:21;20.30;74.20
38480;DHT22;62333;51.980;5.934;2023-09-19T00:36:47;20.30;74.30
38480;DHT22;62333;51.980;5.934;2023-09-19T00:39:12;20.30;74.40
38480;DHT22;62333;51.980;5.934;2023-09-19T00:41:38;20.20;74.50
38480;DHT22;62333;51.980;5.934;2023-09-19T00:44:04;20.20;74.70
38480;DHT22;62333;51.980;5.934;2023-09-19T00:46:31;20.10;74.80
38480;DHT22;62333;51.980;5.934;2023-09-19T00:48:58;20.10;75.00
38480;DHT22;62333;51.980;5.934;2023-09-19T00:51:25;20.00;75.00
38480;DHT22;62333;51.980;5.934;2023-09-19T00:53:52;20.00;75.10
38480;DHT22;62333;51.980;5.934;2023-09-19T00:56:18;20.00;75.10
38480;DHT22;62333;51.980;5.934;2023-09-19T00:58:45;20.00;75.40
38480;DHT22;62333;51.980;5.934;2023-09-19T01:01:12;20.00;75.40
38480;DHT22;62333;51.980;5.934;2023-09-19T01:03:43;19.90;75.50
38480;DHT22;62333;51.980;5.934;2023-09-19T01:06:09;19.90;75.70
38480;DHT22;62333;51.980;5.934;2023-09-19T01:08:35;19.90;75.80
38480;DHT22;62333;51.980;5.934;2023-09-19T01:11:16;19.80;76.00
38480;DHT22;62333;51.980;5.934;2023-09-19T01:14:25;19.80;76.10
38480;DHT22;62333;51.980;5.934;2023-09-19T01:20:15;19.70;76.50
38480;DHT22;62333;51.980;5.934;2023-09-19T01:22:53;19.60;76.70
38480;DHT22;62333;51.980;5.934;2023-09-19T01:25:34;19.60;76.60
38480;DHT22;62333;51.980;5.934;2023-09-19T01:28:30;19.60;76.70
38480;DHT22;62333;51.980;5.934;2023-09-19T01:31:02;19.60;76.60
38480;DHT22;62333;51.980;5.934;2023-09-19T01:33:53;19.60;76.90
38480;DHT22;62333;51.980;5.934;2023-09-19T01:36:16;19.60;77.00
38480;DHT22;62333;51.980;5.934;2023-09-19T01:38:42;19.60;77.10
38480;DHT22;62333;51.980;5.934;2023-09-19T01:41:12;19.60;77.10
38480;DHT22;62333;51.980;5.934;2023-09-19T01:43:43;19.50;77.10
38480;DHT22;62333;51.980;5.934;2023-09-19T01:46:16;19.50;77.10
38480;DHT22;62333;51.980;5.934;2023-09-19T01:51:37;19.50;76.90
38480;DHT22;62333;51.980;5.934;2023-09-19T01:54:10;19.50;77.00
38480;DHT22;62333;51.980;5.934;2023-09-19T01:56:50;19.40;77.10
38480;DHT22;62333;51.980;5.934;2023-09-19T01:59:21;19.40;77.00
38480;DHT22;62333;51.980;5.934;2023-09-19T02:01:49;19.40;77.10
38480;DHT22;62333;51.980;5.934;2023-09-19T02:04:17;19.30;77.10
38480;DHT22;62333;51.980;5.934;2023-09-19T02:06:43;19.30;77.10
38480;DHT22;62333;51.980;5.934;2023-09-19T02:09:08;19.30;77.20
38480;DHT22;62333;51.980;5.934;2023-09-19T02:11:35;19.30;77.10
38480;DHT22;62333;51.980;5.934;2023-09-19T02:14:02;19.20;76.90
38480;DHT22;62333;51.980;5.934;2023-09-19T02:16:28;19.10;76.80
38480;DHT22;62333;51.980;5.934;2023-09-19T02:18:54;19.10;77.00
38480;DHT22;62333;51.980;5.934;2023-09-19T02:21:19;19.10;77.00
38480;DHT22;62333;51.980;5.934;2023-09-19T02:23:47;19.10;76.90
38480;DHT22;62333;51.980;5.934;2023-09-19T02:26:13;19.10;77.00
38480;DHT22;62333;51.980;5.934;2023-09-19T02:28:39;19.00;76.80
38480;DHT22;62333;51.980;5.934;2023-09-19T02:31:05;19.00;76.40
38480;DHT22;62333;51.980;5.934;2023-09-19T02:33:31;19.00;76.40
38480;DHT22;62333;51.980;5.934;2023-09-19T02:35:58;19.00;76.50
38480;DHT22;62333;51.980;5.934;2023-09-19T02:38:25;19.00;76.20
38480;DHT22;62333;51.980;5.934;2023-09-19T02:40:52;18.90;76.10
38480;DHT22;62333;51.980;5.934;2023-09-19T02:43:18;18.90;76.10
38480;DHT22;62333;51.980;5.934;2023-09-19T02:45:45;18.90;75.90
38480;DHT22;62333;51.980;5.934;2023-09-19T02:48:12;18.90;75.90
38480;DHT22;62333;51.980;5.934;2023-09-19T02:50:38;18.90;75.90
38480;DHT22;62333;51.980;5.934;2023-09-19T02:53:05;18.80;75.70
38480;DHT22;62333;51.980;5.934;2023-09-19T02:55:32;18.80;75.60
38480;DHT22;62333;51.980;5.934;2023-09-19T02:57:58;18.80;75.60
38480;DHT22;62333;51.980;5.934;2023-09-19T03:00:24;18.70;75.70
38480;DHT22;62333;51.980;5.934;2023-09-19T03:02:50;18.70;75.70
38480;DHT22;62333;51.980;5.934;2023-09-19T03:05:17;18.80;75.70
38480;DHT22;62333;51.980;5.934;2023-09-19T03:07:43;18.70;75.60
38480;DHT22;62333;51.980;5.934;2023-09-19T03:10:11;18.70;75.60
38480;DHT22;62333;51.980;5.934;2023-09-19T03:12:37;18.70;75.60
38480;DHT22;62333;51.980;5.934;2023-09-19T03:15:03;18.70;75.60
38480;DHT22;62333;51.980;5.934;2023-09-19T03:17:30;18.70;75.40
38480;DHT22;62333;51.980;5.934;2023-09-19T03:19:55;18.70;75.20
38480;DHT22;62333;51.980;5.934;2023-09-19T03:22:22;18.70;75.00
38480;DHT22;62333;51.980;5.934;2023-09-19T03:24:50;18.60;74.90
38480;DHT22;62333;51.980;5.934;2023-09-19T03:27:15;18.60;74.60
38480;DHT22;62333;51.980;5.934;2023-09-19T03:29:42;18.60;74.70
38480;DHT22;62333;51.980;5.934;2023-09-19T03:32:08;18.60;74.60
38480;DHT22;62333;51.980;5.934;2023-09-19T03:34:38;18.50;74.60
38480;DHT22;62333;51.980;5.934;2023-09-19T03:37:09;18.50;74.60
38480;DHT22;62333;51.980;5.934;2023-09-19T03:39:35;18.60;74.70
38480;DHT22;62333;51.980;5.934;2023-09-19T03:42:01;18.60;74.50
38480;DHT22;62333;51.980;5.934;2023-09-19T03:44:30;18.60;74.30
38480;DHT22;62333;51.980;5.934;2023-09-19T03:46:56;18.50;74.00
38480;DHT22;62333;51.980;5.934;2023-09-19T03:49:22;18.50;73.80
38480;DHT22;62333;51.980;5.934;2023-09-19T03:51:48;18.40;73.80
38480;DHT22;62333;51.980;5.934;2023-09-19T03:54:13;18.40;73.60
38480;DHT22;62333;51.980;5.934;2023-09-19T03:56:39;18.40;73.30
38480;DHT22;62333;51.980;5.934;2023-09-19T03:59:05;18.30;73.40
38480;DHT22;62333;51.980;5.934;2023-09-19T04:01:30;18.30;73.50
38480;DHT22;62333;51.980;5.934;2023-09-19T04:03:59;18.30;73.50
38480;DHT22;62333;51.980;5.934;2023-09-19T04:06:36;18.30;73.40
38480;DHT22;62333;51.980;5.934;2023-09-19T04:09:03;18.30;73.00
38480;DHT22;62333;51.980;5.934;2023-09-19T04:11:29;18.20;72.90
38480;DHT22;62333;51.980;5.934;2023-09-19T04:13:56;18.20;73.10
38480;DHT22;62333;51.980;5.934;2023-09-19T04:16:21;18.20;72.70
38480;DHT22;62333;51.980;5.934;2023-09-19T04:18:47;18.20;72.80
38480;DHT22;62333;51.980;5.934;2023-09-19T04:21:13;18.20;72.40
38480;DHT22;62333;51.980;5.934;2023-09-19T04:23:38;18.20;72.50
38480;DHT22;62333;51.980;5.934;2023-09-19T04:26:04;18.20;72.20
38480;DHT22;62333;51.980;5.934;2023-09-19T04:28:30;18.20;72.50
38480;DHT22;62333;51.980;5.934;2023-09-19T04:30:57;18.20;72.20
38480;DHT22;62333;51.980;5.934;2023-09-19T04:33:24;18.10;71.90
38480;DHT22;62333;51.980;5.934;2023-09-19T04:35:50;18.10;71.90
38480;DHT22;62333;51.980;5.934;2023-09-19T04:38:20;18.10;72.10
38480;DHT22;62333;51.980;5.934;2023-09-19T04:40:46;18.10;71.70
38480;DHT22;62333;51.980;5.934;2023-09-19T04:43:12;18.10;71.70
38480;DHT22;62333;51.980;5.934;2023-09-19T04:45:39;18.10;71.90
38480;DHT22;62333;51.980;5.934;2023-09-19T04:48:05;18.10;71.80
38480;DHT22;62333;51.980;5.934;2023-09-19T04:50:34;18.10;71.80
38480;DHT22;62333;51.980;5.934;2023-09-19T04:53:00;18.10;71.50
38480;DHT22;62333;51.980;5.934;2023-09-19T04:55:26;18.10;71.60
38480;DHT22;62333;51.980;5.934;2023-09-19T04:57:52;18.10;71.70
38480;DHT22;62333;51.980;5.934;2023-09-19T05:00:23;18.10;71.50
38480;DHT22;62333;51.980;5.934;2023-09-19T05:02:55;18.10;71.40
38480;DHT22;62333;51.980;5.934;2023-09-19T05:05:24;18.10;71.50
38480;DHT22;62333;51.980;5.934;2023-09-19T05:07:51;18.10;71.50
38480;DHT22;62333;51.980;5.934;2023-09-19T05:10:19;18.10;71.70
38480;DHT22;62333;51.980;5.934;2023-09-19T05:12:44;18.00;71.40
38480;DHT22;62333;51.980;5.934;2023-09-19T05:15:12;18.00;71.40
38480;DHT22;62333;51.980;5.934;2023-09-19T05:17:38;18.00;71.50
38480;DHT22;62333;51.980;5.934;2023-09-19T05:20:05;18.00;71.70
38480;DHT22;62333;51.980;5.934;2023-09-19T05:22:43;17.90;71.60
38480;DHT22;62333;51.980;5.934;2023-09-19T05:25:11;18.00;71.80
38480;DHT22;62333;51.980;5.934;2023-09-19T05:27:42;17.90;72.00
38480;DHT22;62333;51.980;5.934;2023-09-19T05:30:08;18.00;72.00
38480;DHT22;62333;51.980;5.934;2023-09-19T05:32:34;18.00;72.00
38480;DHT22;62333;51.980;5.934;2023-09-19T05:34:59;18.00;72.00
38480;DHT22;62333;51.980;5.934;2023-09-19T05:37:25;18.00;72.00
38480;DHT22;62333;51.980;5.934;2023-09-19T05:39:51;18.00;72.20
38480;DHT22;62333;51.980;5.934;2023-09-19T05:42:19;18.10;72.10
38480;DHT22;62333;51.980;5.934;2023-09-19T05:44:44;18.40;72.10
38480;DHT22;62333;51.980;5.934;2023-09-19T05:47:10;18.80;71.70
38480;DHT22;62333;51.980;5.934;2023-09-19T05:49:36;19.40;71.20
38480;DHT22;62333;51.980;5.934;2023-09-19T05:52:08;19.80;70.50
38480;DHT22;62333;51.980;5.934;2023-09-19T05:54:34;19.90;69.50
38480;DHT22;62333;51.980;5.934;2023-09-19T05:57:02;19.70;69.20
38480;DHT22;62333;51.980;5.934;2023-09-19T05:59:28;19.40;69.00
38480;DHT22;62333;51.980;5.934;2023-09-19T06:01:54;19.20;69.20
38480;DHT22;62333;51.980;5.934;2023-09-19T06:04:20;18.90;69.60
38480;DHT22;62333;51.980;5.934;2023-09-19T06:06:46;18.80;70.00
38480;DHT22;62333;51.980;5.934;2023-09-19T06:09:14;18.60;70.30
38480;DHT22;62333;51.980;5.934;2023-09-19T06:11:41;18.50;70.50
38480;DHT22;62333;51.980;5.934;2023-09-19T06:14:07;18.50;70.90
38480;DHT22;62333;51.980;5.934;2023-09-19T06:16:33;18.40;71.10
38480;DHT22;62333;51.980;5.934;2023-09-19T06:18:59;18.40;71.40
38480;DHT22;62333;51.980;5.934;2023-09-19T06:21:26;18.30;71.50
38480;DHT22;62333;51.980;5.934;2023-09-19T06:23:53;18.30;71.90
38480;DHT22;62333;51.980;5.934;2023-09-19T06:26:19;18.20;72.10
38480;DHT22;62333;51.980;5.934;2023-09-19T06:28:44;18.20;72.20
38480;DHT22;62333;51.980;5.934;2023-09-19T06:31:10;18.30;72.70
38480;DHT22;62333;51.980;5.934;2023-09-19T06:33:37;18.30;72.80
38480;DHT22;62333;51.980;5.934;2023-09-19T06:36:06;18.30;72.90
38480;DHT22;62333;51.980;5.934;2023-09-19T06:38:32;18.30;73.10
38480;DHT22;62333;51.980;5.934;2023-09-19T06:41:05;18.40;73.60
38480;DHT22;62333;51.980;5.934;2023-09-19T06:43:31;18.40;74.10
38480;DHT22;62333;51.980;5.934;2023-09-19T06:45:58;18.50;74.00
38480;DHT22;62333;51.980;5.934;2023-09-19T06:48:24;18.50;74.60
38480;DHT22;62333;51.980;5.934;2023-09-19T06:50:50;18.50;74.60
38480;DHT22;62333;51.980;5.934;2023-09-19T06:53:18;18.50;74.70
38480;DHT22;62333;51.980;5.934;2023-09-19T06:55:44;18.60;74.80
38480;DHT22;62333;51.980;5.934;2023-09-19T06:58:10;18.60;74.80
38480;DHT22;62333;51.980;5.934;2023-09-19T07:00:36;18.60;75.10
38480;DHT22;62333;51.980;5.934;2023-09-19T07:03:07;18.60;74.80
38480;DHT22;62333;51.980;5.934;2023-09-19T07:05:38;18.70;75.40
38480;DHT22;62333;51.980;5.934;2023-09-19T07:08:09;18.70;75.80
38480;DHT22;62333;51.980;5.934;2023-09-19T07:10:36;18.80;75.30
38480;DHT22;62333;51.980;5.934;2023-09-19T07:13:05;18.80;75.70
38480;DHT22;62333;51.980;5.934;2023-09-19T07:15:34;18.80;75.40
38480;DHT22;62333;51.980;5.934;2023-09-19T07:18:04;18.90;75.50
38480;DHT22;62333;51.980;5.934;2023-09-19T07:20:30;18.90;75.50
38480;DHT22;62333;51.980;5.934;2023-09-19T07:22:58;18.90;75.50
38480;DHT22;62333;51.980;5.934;2023-09-19T07:25:27;19.00;75.40
38480;DHT22;62333;51.980;5.934;2023-09-19T07:27:55;19.00;75.60
38480;DHT22;62333;51.980;5.934;2023-09-19T07:30:21;19.00;76.10
38480;DHT22;62333;51.980;5.934;2023-09-19T07:32:48;19.10;76.50
38480;DHT22;62333;51.980;5.934;2023-09-19T07:35:13;19.20;77.20
38480;DHT22;62333;51.980;5.934;2023-09-19T07:37:40;19.30;77.30
38480;DHT22;62333;51.980;5.934;2023-09-19T07:40:06;19.30;77.00
38480;DHT22;62333;51.980;5.934;2023-09-19T07:42:35;19.40;76.70
38480;DHT22;62333;51.980;5.934;2023-09-19T07:45:06;19.40;76.30
38480;DHT22;62333;51.980;5.934;2023-09-19T07:47:33;19.50;76.00
38480;DHT22;62333;51.980;5.934;2023-09-19T07:49:59;19.50;75.90
38480;DHT22;62333;51.980;5.934;2023-09-19T07:52:27;19.60;75.70
38480;DHT22;62333;51.980;5.934;2023-09-19T07:54:53;19.70;75.10
38480;DHT22;62333;51.980;5.934;2023-09-19T07:57:19;19.70;74.60
38480;DHT22;62333;51.980;5.934;2023-09-19T07:59:45;19.70;74.20
38480;DHT22;62333;51.980;5.934;2023-09-19T08:02:11;19.80;73.80
38480;DHT22;62333;51.980;5.934;2023-09-19T08:04:46;19.80;73.70
38480;DHT22;62333;51.980;5.934;2023-09-19T08:07:12;19.80;74.20
38480;DHT22;62333;51.980;5.934;2023-09-19T08:09:41;19.90;75.00
38480;DHT22;62333;51.980;5.934;2023-09-19T08:12:11;20.00;74.40
38480;DHT22;62333;51.980;5.934;2023-09-19T08:14:37;20.00;73.50
38480;DHT22;62333;51.980;5.934;2023-09-19T08:17:04;20.10;73.80
38480;DHT22;62333;51.980;5.934;2023-09-19T08:19:34;20.20;73.60
38480;DHT22;62333;51.980;5.934;2023-09-19T08:21:59;20.30;73.20
38480;DHT22;62333;51.980;5.934;2023-09-19T08:24:27;20.30;72.40
38480;DHT22;62333;51.980;5.934;2023-09-19T08:26:57;20.40;72.50
38480;DHT22;62333;51.980;5.934;2023-09-19T08:29:25;20.50;72.70
38480;DHT22;62333;51.980;5.934;2023-09-19T08:31:54;20.60;72.00
38480;DHT22;62333;51.980;5.934;2023-09-19T08:34:20;20.70;72.20
38480;DHT22;62333;51.980;5.934;2023-09-19T08:36:46;20.70;71.00
38480;DHT22;62333;51.980;5.934;2023-09-19T08:39:13;20.70;70.70
38480;DHT22;62333;51.980;5.934;2023-09-19T08:41:39;20.80;70.60
38480;DHT22;62333;51.980;5.934;2023-09-19T08:44:05;20.80;70.30
38480;DHT22;62333;51.980;5.934;2023-09-19T08:46:33;20.90;70.50
38480;DHT22;62333;51.980;5.934;2023-09-19T08:49:05;21.00;70.30
38480;DHT22;62333;51.980;5.934;2023-09-19T08:51:43;21.10;70.20
38480;DHT22;62333;51.980;5.934;2023-09-19T08:56:46;21.10;69.60
38480;DHT22;62333;51.980;5.934;2023-09-19T08:59:13;21.20;69.20
38480;DHT22;62333;51.980;5.934;2023-09-19T09:12:54;21.20;67.90
38480;DHT22;62333;51.980;5.934;2023-09-19T09:15:23;21.80;67.90
38480;DHT22;62333;51.980;5.934;2023-09-19T09:17:50;21.70;67.60
38480;DHT22;62333;51.980;5.934;2023-09-19T09:20:18;21.70;67.10
38480;DHT22;62333;51.980;5.934;2023-09-19T09:22:54;21.80;67.00
38480;DHT22;62333;51.980;5.934;2023-09-19T09:25:20;21.80;66.80
38480;DHT22;62333;51.980;5.934;2023-09-19T09:28:00;22.00;66.80
38480;DHT22;62333;51.980;5.934;2023-09-19T09:30:34;22.10;66.00
38480;DHT22;62333;51.980;5.934;2023-09-19T09:33:13;22.10;65.50
38480;DHT22;62333;51.980;5.934;2023-09-19T09:35:54;22.30;65.10
38480;DHT22;62333;51.980;5.934;2023-09-19T09:38:25;22.40;64.60
38480;DHT22;62333;51.980;5.934;2023-09-19T09:40:54;22.20;64.10
38480;DHT22;62333;51.980;5.934;2023-09-19T09:43:36;22.30;64.10
38480;DHT22;62333;51.980;5.934;2023-09-19T09:46:12;22.50;63.80
38480;DHT22;62333;51.980;5.934;2023-09-19T09:49:00;22.50;63.50
38480;DHT22;62333;51.980;5.934;2023-09-19T09:51:58;22.50;63.00
38480;DHT22;62333;51.980;5.934;2023-09-19T09:54:26;22.50;63.20
38480;DHT22;62333;51.980;5.934;2023-09-19T09:57:11;22.60;63.10
38480;DHT22;62333;51.980;5.934;2023-09-19T09:59:53;22.70;62.70
38480;DHT22;62333;51.980;5.934;2023-09-19T10:02:39;22.80;62.00
38480;DHT22;62333;51.980;5.934;2023-09-19T10:05:17;22.90;61.40
38480;DHT22;62333;51.980;5.934;2023-09-19T10:07:50;23.00;61.10
38480;DHT22;62333;51.980;5.934;2023-09-19T10:10:40;23.10;60.50
38480;DHT22;62333;51.980;5.934;2023-09-19T10:13:10;23.20;60.30
38480;DHT22;62333;51.980;5.934;2023-09-19T10:15:46;23.20;60.10
38480;DHT22;62333;51.980;5.934;2023-09-19T10:18:22;23.20;60.00
38480;DHT22;62333;51.980;5.934;2023-09-19T10:20:49;23.30;59.90
38480;DHT22;62333;51.980;5.934;2023-09-19T10:23:18;23.50;60.00
38480;DHT22;62333;51.980;5.934;2023-09-19T10:25:48;23.50;59.50
38480;DHT22;62333;51.980;5.934;2023-09-19T10:28:15;23.60;59.30
38480;DHT22;62333;51.980;5.934;2023-09-19T10:30:43;23.60;59.20
38480;DHT22;62333;51.980;5.934;2023-09-19T10:33:22;23.60;59.10
38480;DHT22;62333;51.980;5.934;2023-09-19T10:35:51;23.50;59.00
38480;DHT22;62333;51.980;5.934;2023-09-19T10:38:18;23.60;59.10
38480;DHT22;62333;51.980;5.934;2023-09-19T10:40:50;23.60;58.60
38480;DHT22;62333;51.980;5.934;2023-09-19T10:43:20;23.50;58.60
38480;DHT22;62333;51.980;5.934;2023-09-19T10:45:48;23.40;58.80
38480;DHT22;62333;51.980;5.934;2023-09-19T10:48:20;23.50;59.00
38480;DHT22;62333;51.980;5.934;2023-09-19T10:51:08;23.50;58.60
38480;DHT22;62333;51.980;5.934;2023-09-19T10:54:01;23.40;58.40
38480;DHT22;62333;51.980;5.934;2023-09-19T10:56:35;23.30;58.60
38480;DHT22;62333;51.980;5.934;2023-09-19T10:59:11;23.10;58.70
38480;DHT22;62333;51.980;5.934;2023-09-19T11:01:56;23.00;59.10
38480;DHT22;62333;51.980;5.934;2023-09-19T11:04:35;22.80;59.50
38480;DHT22;62333;51.980;5.934;2023-09-19T11:07:14;22.90;59.70
38480;DHT22;62333;51.980;5.934;2023-09-19T11:09:45;22.80;59.60
38480;DHT22;62333;51.980;5.934;2023-09-19T11:15:02;22.80;59.90
38480;DHT22;62333;51.980;5.934;2023-09-19T11:17:32;22.70;60.00
38480;DHT22;62333;51.980;5.934;2023-09-19T11:30:48;22.80;60.30
38480;DHT22;62333;51.980;5.934;2023-09-19T11:33:27;23.00;60.50
38480;DHT22;62333;51.980;5.934;2023-09-19T11:43:46;23.00;59.80
38480;DHT22;62333;51.980;5.934;2023-09-19T11:46:12;22.90;60.00
38480;DHT22;62333;51.980;5.934;2023-09-19T11:48:43;23.00;60.10
38480;DHT22;62333;51.980;5.934;2023-09-19T11:51:11;23.00;60.10
38480;DHT22;62333;51.980;5.934;2023-09-19T11:53:47;23.10;59.90
38480;DHT22;62333;51.980;5.934;2023-09-19T11:56:27;23.20;59.50
38480;DHT22;62333;51.980;5.934;2023-09-19T11:58:57;23.20;59.20
38480;DHT22;62333;51.980;5.934;2023-09-19T12:01:35;23.20;59.20
38480;DHT22;62333;51.980;5.934;2023-09-19T12:04:11;23.30;59.00
38480;DHT22;62333;51.980;5.934;2023-09-19T12:06:43;23.30;58.90
38480;DHT22;62333;51.980;5.934;2023-09-19T12:09:28;23.40;58.70
38480;DHT22;62333;51.980;5.934;2023-09-19T12:11:59;23.50;58.70
38480;DHT22;62333;51.980;5.934;2023-09-19T12:14:28;23.50;58.40
38480;DHT22;62333;51.980;5.934;2023-09-19T12:17:00;23.50;58.10
38480;DHT22;62333;51.980;5.934;2023-09-19T12:19:31;23.60;57.90
38480;DHT22;62333;51.980;5.934;2023-09-19T12:22:04;23.50;57.80
38480;DHT22;62333;51.980;5.934;2023-09-19T12:24:33;23.60;58.00
38480;DHT22;62333;51.980;5.934;2023-09-19T12:27:05;23.70;57.90
38480;DHT22;62333;51.980;5.934;2023-09-19T12:29:47;23.80;57.80
38480;DHT22;62333;51.980;5.934;2023-09-19T12:32:36;24.00;57.40
38480;DHT22;62333;51.980;5.934;2023-09-19T12:35:08;24.10;57.00
38480;DHT22;62333;51.980;5.934;2023-09-19T12:37:37;24.10;56.70
38480;DHT22;62333;51.980;5.934;2023-09-19T12:40:08;24.00;56.70
38480;DHT22;62333;51.980;5.934;2023-09-19T12:42:49;24.00;56.50
38480;DHT22;62333;51.980;5.934;2023-09-19T12:45:20;23.90;56.30
38480;DHT22;62333;51.980;5.934;2023-09-19T12:48:25;23.70;56.40
38480;DHT22;62333;51.980;5.934;2023-09-19T12:51:13;23.60;56.80
38480;DHT22;62333;51.980;5.934;2023-09-19T12:53:45;23.50;56.50
38480;DHT22;62333;51.980;5.934;2023-09-19T12:56:13;23.30;56.80
38480;DHT22;62333;51.980;5.934;2023-09-19T12:58:51;23.30;56.90
38480;DHT22;62333;51.980;5.934;2023-09-19T13:01:19;23.20;57.00
38480;DHT22;62333;51.980;5.934;2023-09-19T13:03:45;23.10;57.30
38480;DHT22;62333;51.980;5.934;2023-09-19T13:06:14;23.10;57.40
38480;DHT22;62333;51.980;5.934;2023-09-19T13:08:42;23.10;57.30
38480;DHT22;62333;51.980;5.934;2023-09-19T13:11:18;23.10;57.50
38480;DHT22;62333;51.980;5.934;2023-09-19T13:16:30;23.00;57.90
38480;DHT22;62333;51.980;5.934;2023-09-19T13:18:58;23.00;57.90
38480;DHT22;62333;51.980;5.934;2023-09-19T13:21:32;23.10;58.00
38480;DHT22;62333;51.980;5.934;2023-09-19T13:26:45;23.10;58.10
38480;DHT22;62333;51.980;5.934;2023-09-19T13:29:11;23.10;58.30
38480;DHT22;62333;51.980;5.934;2023-09-19T13:31:45;23.10;58.30
38480;DHT22;62333;51.980;5.934;2023-09-19T13:34:19;23.10;58.20
38480;DHT22;62333;51.980;5.934;2023-09-19T13:36:47;23.10;58.30
38480;DHT22;62333;51.980;5.934;2023-09-19T13:39:14;23.10;58.50
38480;DHT22;62333;51.980;5.934;2023-09-19T13:41:52;23.10;58.50
38480;DHT22;62333;51.980;5.934;2023-09-19T13:44:18;23.10;58.60
38480;DHT22;62333;51.980;5.934;2023-09-19T13:46:44;23.00;58.80
38480;DHT22;62333;51.980;5.934;2023-09-19T13:49:14;23.00;58.80
38480;DHT22;62333;51.980;5.934;2023-09-19T13:51:46;23.00;58.80
38480;DHT22;62333;51.980;5.934;2023-09-19T13:54:12;23.00;58.90
38480;DHT22;62333;51.980;5.934;2023-09-19T13:56:37;22.90;59.10
38480;DHT22;62333;51.980;5.934;2023-09-19T13:59:04;22.90;59.20
38480;DHT22;62333;51.980;5.934;2023-09-19T14:01:33;22.90;59.20
38480;DHT22;62333;51.980;5.934;2023-09-19T14:03:58;22.90;59.20
38480;DHT22;62333;51.980;5.934;2023-09-19T14:06:24;22.90;59.40
38480;DHT22;62333;51.980;5.934;2023-09-19T14:08:51;22.90;59.50
38480;DHT22;62333;51.980;5.934;2023-09-19T14:11:17;22.90;59.60
38480;DHT22;62333;51.980;5.934;2023-09-19T14:13:43;22.90;59.30
38480;DHT22;62333;51.980;5.934;2023-09-19T14:16:15;23.00;59.40
38480;DHT22;62333;51.980;5.934;2023-09-19T14:18:41;23.00;59.30
38480;DHT22;62333;51.980;5.934;2023-09-19T14:21:07;23.00;59.30
38480;DHT22;62333;51.980;5.934;2023-09-19T14:23:37;23.10;59.40
38480;DHT22;62333;51.980;5.934;2023-09-19T14:26:03;23.10;59.10
38480;DHT22;62333;51.980;5.934;2023-09-19T14:28:31;23.10;59.20
38480;DHT22;62333;51.980;5.934;2023-09-19T14:31:04;23.10;59.30
38480;DHT22;62333;51.980;5.934;2023-09-19T14:33:30;23.10;59.20
38480;DHT22;62333;51.980;5.934;2023-09-19T14:35:56;23.00;59.40
38480;DHT22;62333;51.980;5.934;2023-09-19T14:38:22;23.00;59.20
38480;DHT22;62333;51.980;5.934;2023-09-19T14:40:48;22.90;59.10
38480;DHT22;62333;51.980;5.934;2023-09-19T14:43:15;22.90;59.30
38480;DHT22;62333;51.980;5.934;2023-09-19T14:45:41;22.80;59.40
38480;DHT22;62333;51.980;5.934;2023-09-19T14:48:07;22.80;59.60
38480;DHT22;62333;51.980;5.934;2023-09-19T14:50:33;22.90;59.70
38480;DHT22;62333;51.980;5.934;2023-09-19T14:52:58;22.80;59.60
38480;DHT22;62333;51.980;5.934;2023-09-19T14:55:27;22.80;59.70
38480;DHT22;62333;51.980;5.934;2023-09-19T14:57:54;22.80;59.70
38480;DHT22;62333;51.980;5.934;2023-09-19T15:00:22;22.70;59.80
38480;DHT22;62333;51.980;5.934;2023-09-19T15:02:49;22.70;59.80
38480;DHT22;62333;51.980;5.934;2023-09-19T15:05:16;22.70;59.80
38480;DHT22;62333;51.980;5.934;2023-09-19T15:07:42;22.70;59.80
38480;DHT22;62333;51.980;5.934;2023-09-19T15:10:08;22.70;59.90
38480;DHT22;62333;51.980;5.934;2023-09-19T15:12:36;22.60;60.00
38480;DHT22;62333;51.980;5.934;2023-09-19T15:15:04;22.60;60.20
38480;DHT22;62333;51.980;5.934;2023-09-19T15:17:32;22.60;60.30
38480;DHT22;62333;51.980;5.934;2023-09-19T15:19:58;22.60;60.40
38480;DHT22;62333;51.980;5.934;2023-09-19T15:22:23;22.60;60.30
38480;DHT22;62333;51.980;5.934;2023-09-19T15:24:50;22.50;60.40
38480;DHT22;62333;51.980;5.934;2023-09-19T15:27:16;22.50;60.70
38480;DHT22;62333;51.980;5.934;2023-09-19T15:29:45;22.40;60.70
38480;DHT22;62333;51.980;5.934;2023-09-19T15:32:11;22.30;60.90
38480;DHT22;62333;51.980;5.934;2023-09-19T15:34:37;22.40;60.90
38480;DHT22;62333;51.980;5.934;2023-09-19T15:37:03;22.40;61.10
38480;DHT22;62333;51.980;5.934;2023-09-19T15:39:31;22.40;61.20
38480;DHT22;62333;51.980;5.934;2023-09-19T15:42:01;22.40;61.10
38480;DHT22;62333;51.980;5.934;2023-09-19T15:44:26;22.40;61.10
38480;DHT22;62333;51.980;5.934;2023-09-19T15:46:52;22.40;61.10
38480;DHT22;62333;51.980;5.934;2023-09-19T15:49:18;22.40;61.80
38480;DHT22;62333;51.980;5.934;2023-09-19T15:51:44;22.40;61.40
38480;DHT22;62333;51.980;5.934;2023-09-19T15:54:11;22.40;61.40
38480;DHT22;62333;51.980;5.934;2023-09-19T15:56:41;22.40;61.40
38480;DHT22;62333;51.980;5.934;2023-09-19T15:59:07;22.40;61.60
38480;DHT22;62333;51.980;5.934;2023-09-19T16:01:34;22.40;61.70
38480;DHT22;62333;51.980;5.934;2023-09-19T16:04:00;22.40;61.80
38480;DHT22;62333;51.980;5.934;2023-09-19T16:06:27;22.40;61.80
38480;DHT22;62333;51.980;5.934;2023-09-19T16:08:55;22.30;62.00
38480;DHT22;62333;51.980;5.934;2023-09-19T16:11:24;22.30;62.10
38480;DHT22;62333;51.980;5.934;2023-09-19T16:13:51;22.30;62.30
38480;DHT22;62333;51.980;5.934;2023-09-19T16:16:19;22.30;62.30
38480;DHT22;62333;51.980;5.934;2023-09-19T16:18:55;22.40;62.30
38480;DHT22;62333;51.980;5.934;2023-09-19T16:21:27;22.40;62.30
38480;DHT22;62333;51.980;5.934;2023-09-19T16:23:57;22.30;62.20
38480;DHT22;62333;51.980;5.934;2023-09-19T16:26:24;22.30;62.40
38480;DHT22;62333;51.980;5.934;2023-09-19T16:28:52;22.30;62.70